Natalia, TX (78059)

7:34 PM CST on February 26, 2015 (GMT -0600)
Lytle, Atascosa County | Change Station
CLOSE
Current Station
Personal Weather Station
Location: Lytle, TX
Elevation: 712 ft
Nearby Weather Stations

Elev 712 ft 29.23 °N, 98.76 °W | Updated 9 minutes ago

Partly Cloudy
Partly Cloudy
41.0 °F
Feels Like 33 °F
N
16.0
Wind Variable Wind from NE
Gusts 23.0 mph

Today
High -- | Low -- °F
--% Chance of Precip.
Yesterday
High -- | Low -- °F
Precip. -- in
7:04 AM 6:32 PM
Waxing Gibbous, 64% visible
Pressure 30.23 in
Visibility 10.0 miles
Clouds Clear
Windchill 33 °F
Dew Point 33 °F
Humidity 74%
Rainfall 0.00 in
Snow Depth Not available.
UV 0 out of 12
Pollen 9.50 out of 12
Air Quality Not available.
Flu Activity Not available.
METAR KCVB 270115Z AUTO 04016KT 10SM CLR 05/M01 A3023 RMK AO2 T00501006

More Conditions Fewer Conditions

Pressure 30.23 in
Visibility 10.0 miles
Clouds Clear
Windchill 33 °F
Dew Point 33 °F
Humidity 74%
Rainfall 0.00 in
Snow Depth Not available.
UV 0 out of 12
Pollen 9.50 out of 12
Air Quality Not available.
Flu Activity Not available.
METAR KCVB 270115Z AUTO 04016KT 10SM CLR 05/M01 A3023 RMK AO2 T00501006

More Conditions Fewer Conditions

Nowcast | as of 4:00 PM CST on February 26, 2015

Another strong front is pushing across south central Texas late this afternoon. Expect gusty north to northeast winds of 15 to 25 mph with a few gusts to 35 mph in the first few hours behind the front. Early evening wind chill indices will range from the 20s over The Hill Country to the lower 40s over the coastal prairies and northern parts of the Rio Grande plains.

×

10-Day Weather Forecast

Almanac

Astronomy

Feb. 26, 2015 Rise Set
Actual Time
Civil Twilight
Nautical Twilight
Astronomical Twilight
Moon
Length of Visible Light
Length of Day
Tomorrow will be .
, % of the Moon is Illuminated

Today's Extremes

State Highs State Lows

Community

WunderPhotos

Upload Photos

1,800,553 photos uploaded!

WunderBlogs® & News

Nearby

Air Quality

  Air Quality AQ Index Pollutant
Not available.

Snow Depth

Station Depth Elevation

Earthquake Activity

City Distance Mag. Time & Date
Minimum magnitude displayed is 2.5.

Coastal Water Temperatures

Place Temperature

Nearby Weather Stations